sensor_id;sensor_type;location;lat;lon;timestamp;P1;durP1;ratioP1;P2;durP2;ratioP2
36801;SDS011;22753;42.604;23.366;2024-02-21T00:01:17;11.82;;;6.75;;
36801;SDS011;22753;42.604;23.366;2024-02-21T00:03:43;12.05;;;6.07;;
36801;SDS011;22753;42.604;23.366;2024-02-21T00:06:08;10.65;;;6.05;;
36801;SDS011;22753;42.604;23.366;2024-02-21T00:08:33;11.50;;;6.50;;
36801;SDS011;22753;42.604;23.366;2024-02-21T00:10:59;11.13;;;6.47;;
36801;SDS011;22753;42.604;23.366;2024-02-21T00:13:24;11.13;;;6.57;;
36801;SDS011;22753;42.604;23.366;2024-02-21T00:15:49;10.02;;;5.90;;
36801;SDS011;22753;42.604;23.366;2024-02-21T00:18:15;8.70;;;4.78;;
36801;SDS011;22753;42.604;23.366;2024-02-21T00:20:40;10.05;;;5.55;;
36801;SDS011;22753;42.604;23.366;2024-02-21T00:23:05;8.85;;;4.95;;
36801;SDS011;22753;42.604;23.366;2024-02-21T00:25:31;7.72;;;4.68;;
36801;SDS011;22753;42.604;23.366;2024-02-21T00:27:56;9.10;;;5.38;;
36801;SDS011;22753;42.604;23.366;2024-02-21T00:30:22;9.45;;;5.57;;
36801;SDS011;22753;42.604;23.366;2024-02-21T00:32:47;9.05;;;5.20;;
36801;SDS011;22753;42.604;23.366;2024-02-21T00:35:13;10.30;;;5.90;;
36801;SDS011;22753;42.604;23.366;2024-02-21T00:37:39;10.30;;;6.88;;
36801;SDS011;22753;42.604;23.366;2024-02-21T00:40:04;10.48;;;6.07;;
36801;SDS011;22753;42.604;23.366;2024-02-21T00:42:30;8.60;;;5.18;;
36801;SDS011;22753;42.604;23.366;2024-02-21T00:44:55;8.27;;;4.75;;
36801;SDS011;22753;42.604;23.366;2024-02-21T00:47:21;8.48;;;5.25;;
36801;SDS011;22753;42.604;23.366;2024-02-21T00:49:46;8.32;;;5.28;;
36801;SDS011;22753;42.604;23.366;2024-02-21T00:52:11;10.88;;;5.75;;
36801;SDS011;22753;42.604;23.366;2024-02-21T00:54:37;9.40;;;5.80;;
36801;SDS011;22753;42.604;23.366;2024-02-21T00:57:02;10.85;;;6.22;;
36801;SDS011;22753;42.604;23.366;2024-02-21T00:59:28;12.68;;;6.40;;
36801;SDS011;22753;42.604;23.366;2024-02-21T01:01:53;11.13;;;6.72;;
36801;SDS011;22753;42.604;23.366;2024-02-21T01:04:18;10.90;;;6.20;;
36801;SDS011;22753;42.604;23.366;2024-02-21T01:06:44;11.90;;;6.68;;
36801;SDS011;22753;42.604;23.366;2024-02-21T01:09:10;10.75;;;6.53;;
36801;SDS011;22753;42.604;23.366;2024-02-21T01:11:36;11.23;;;6.82;;
36801;SDS011;22753;42.604;23.366;2024-02-21T01:14:01;12.02;;;6.68;;
36801;SDS011;22753;42.604;23.366;2024-02-21T01:16:27;11.90;;;7.32;;
36801;SDS011;22753;42.604;23.366;2024-02-21T01:18:52;11.30;;;6.60;;
36801;SDS011;22753;42.604;23.366;2024-02-21T01:21:18;11.85;;;8.18;;
36801;SDS011;22753;42.604;23.366;2024-02-21T01:23:43;11.35;;;6.90;;
36801;SDS011;22753;42.604;23.366;2024-02-21T01:26:09;11.00;;;7.03;;
36801;SDS011;22753;42.604;23.366;2024-02-21T01:28:38;12.30;;;7.90;;
36801;SDS011;22753;42.604;23.366;2024-02-21T01:31:03;12.52;;;7.90;;
36801;SDS011;22753;42.604;23.366;2024-02-21T01:33:28;12.65;;;7.95;;
36801;SDS011;22753;42.604;23.366;2024-02-21T01:35:59;13.73;;;8.73;;
36801;SDS011;22753;42.604;23.366;2024-02-21T01:38:25;12.50;;;7.63;;
36801;SDS011;22753;42.604;23.366;2024-02-21T01:40:51;11.75;;;7.20;;
36801;SDS011;22753;42.604;23.366;2024-02-21T01:43:16;12.32;;;7.80;;
36801;SDS011;22753;42.604;23.366;2024-02-21T01:45:45;12.65;;;7.35;;
36801;SDS011;22753;42.604;23.366;2024-02-21T01:48:12;12.07;;;7.35;;
36801;SDS011;22753;42.604;23.366;2024-02-21T01:50:38;13.23;;;7.68;;
36801;SDS011;22753;42.604;23.366;2024-02-21T01:53:03;13.52;;;8.68;;
36801;SDS011;22753;42.604;23.366;2024-02-21T01:55:29;13.77;;;8.75;;
36801;SDS011;22753;42.604;23.366;2024-02-21T01:57:54;14.27;;;8.95;;
36801;SDS011;22753;42.604;23.366;2024-02-21T02:00:19;15.23;;;10.00;;
36801;SDS011;22753;42.604;23.366;2024-02-21T02:02:45;14.73;;;9.30;;
36801;SDS011;22753;42.604;23.366;2024-02-21T02:05:11;16.77;;;10.20;;
36801;SDS011;22753;42.604;23.366;2024-02-21T02:07:36;17.38;;;10.77;;
36801;SDS011;22753;42.604;23.366;2024-02-21T02:10:02;17.88;;;11.27;;
36801;SDS011;22753;42.604;23.366;2024-02-21T02:12:27;17.58;;;11.27;;
36801;SDS011;22753;42.604;23.366;2024-02-21T02:14:59;17.33;;;11.43;;
36801;SDS011;22753;42.604;23.366;2024-02-21T02:17:25;18.63;;;12.27;;
36801;SDS011;22753;42.604;23.366;2024-02-21T02:19:50;19.70;;;12.40;;
36801;SDS011;22753;42.604;23.366;2024-02-21T02:22:17;21.23;;;11.98;;
36801;SDS011;22753;42.604;23.366;2024-02-21T02:24:46;17.98;;;11.85;;
36801;SDS011;22753;42.604;23.366;2024-02-21T02:27:11;19.27;;;12.35;;
36801;SDS011;22753;42.604;23.366;2024-02-21T02:29:36;20.02;;;12.75;;
36801;SDS011;22753;42.604;23.366;2024-02-21T02:32:02;23.48;;;14.90;;
36801;SDS011;22753;42.604;23.366;2024-02-21T02:34:28;24.60;;;14.23;;
36801;SDS011;22753;42.604;23.366;2024-02-21T02:36:53;30.85;;;17.23;;
36801;SDS011;22753;42.604;23.366;2024-02-21T02:39:19;21.92;;;14.00;;
36801;SDS011;22753;42.604;23.366;2024-02-21T02:41:45;21.15;;;13.18;;
36801;SDS011;22753;42.604;23.366;2024-02-21T02:44:10;21.00;;;13.40;;
36801;SDS011;22753;42.604;23.366;2024-02-21T02:46:35;21.08;;;13.23;;
36801;SDS011;22753;42.604;23.366;2024-02-21T02:49:01;21.00;;;12.52;;
36801;SDS011;22753;42.604;23.366;2024-02-21T02:51:26;20.38;;;12.82;;
36801;SDS011;22753;42.604;23.366;2024-02-21T02:53:51;20.45;;;12.82;;
36801;SDS011;22753;42.604;23.366;2024-02-21T02:56:17;21.00;;;14.27;;
36801;SDS011;22753;42.604;23.366;2024-02-21T02:58:43;21.55;;;13.13;;
36801;SDS011;22753;42.604;23.366;2024-02-21T03:01:09;19.45;;;13.00;;
36801;SDS011;22753;42.604;23.366;2024-02-21T03:03:34;21.20;;;13.48;;
36801;SDS011;22753;42.604;23.366;2024-02-21T03:05:59;22.17;;;14.27;;
36801;SDS011;22753;42.604;23.366;2024-02-21T03:08:26;22.80;;;14.10;;
36801;SDS011;22753;42.604;23.366;2024-02-21T03:10:51;23.73;;;13.93;;
36801;SDS011;22753;42.604;23.366;2024-02-21T03:13:16;21.23;;;14.00;;
36801;SDS011;22753;42.604;23.366;2024-02-21T03:15:42;20.33;;;13.65;;
36801;SDS011;22753;42.604;23.366;2024-02-21T03:18:08;21.65;;;13.88;;
36801;SDS011;22753;42.604;23.366;2024-02-21T03:20:34;22.33;;;14.90;;
36801;SDS011;22753;42.604;23.366;2024-02-21T03:22:59;21.52;;;13.82;;
36801;SDS011;22753;42.604;23.366;2024-02-21T03:25:24;22.17;;;14.00;;
36801;SDS011;22753;42.604;23.366;2024-02-21T03:27:50;21.25;;;14.13;;
36801;SDS011;22753;42.604;23.366;2024-02-21T03:30:16;21.73;;;14.48;;
36801;SDS011;22753;42.604;23.366;2024-02-21T03:32:42;21.38;;;13.85;;
36801;SDS011;22753;42.604;23.366;2024-02-21T03:35:07;23.02;;;14.35;;
36801;SDS011;22753;42.604;23.366;2024-02-21T03:37:33;22.08;;;14.13;;
36801;SDS011;22753;42.604;23.366;2024-02-21T03:39:58;21.67;;;13.75;;
36801;SDS011;22753;42.604;23.366;2024-02-21T03:42:23;19.95;;;13.07;;
36801;SDS011;22753;42.604;23.366;2024-02-21T03:44:49;22.45;;;14.73;;
36801;SDS011;22753;42.604;23.366;2024-02-21T03:47:14;22.60;;;14.32;;
36801;SDS011;22753;42.604;23.366;2024-02-21T03:49:39;21.00;;;13.23;;
36801;SDS011;22753;42.604;23.366;2024-02-21T03:52:05;21.67;;;13.55;;
36801;SDS011;22753;42.604;23.366;2024-02-21T03:54:31;25.63;;;14.00;;
36801;SDS011;22753;42.604;23.366;2024-02-21T03:56:56;21.63;;;14.88;;
36801;SDS011;22753;42.604;23.366;2024-02-21T03:59:22;21.88;;;14.30;;
36801;SDS011;22753;42.604;23.366;2024-02-21T04:01:50;23.15;;;14.82;;
36801;SDS011;22753;42.604;23.366;2024-02-21T04:04:17;23.33;;;14.57;;
36801;SDS011;22753;42.604;23.366;2024-02-21T04:06:45;21.38;;;13.93;;
36801;SDS011;22753;42.604;23.366;2024-02-21T04:09:12;21.15;;;13.75;;
36801;SDS011;22753;42.604;23.366;2024-02-21T04:11:37;20.67;;;13.73;;
36801;SDS011;22753;42.604;23.366;2024-02-21T04:14:02;20.50;;;13.95;;
36801;SDS011;22753;42.604;23.366;2024-02-21T04:16:28;24.58;;;15.10;;
36801;SDS011;22753;42.604;23.366;2024-02-21T04:18:53;21.90;;;14.75;;
36801;SDS011;22753;42.604;23.366;2024-02-21T04:21:19;25.70;;;14.73;;
36801;SDS011;22753;42.604;23.366;2024-02-21T04:23:44;22.05;;;15.05;;
36801;SDS011;22753;42.604;23.366;2024-02-21T04:26:09;21.00;;;14.32;;
36801;SDS011;22753;42.604;23.366;2024-02-21T04:28:35;22.13;;;14.45;;
36801;SDS011;22753;42.604;23.366;2024-02-21T04:31:00;22.65;;;14.57;;
36801;SDS011;22753;42.604;23.366;2024-02-21T04:33:25;22.33;;;14.93;;
36801;SDS011;22753;42.604;23.366;2024-02-21T04:35:51;23.75;;;15.13;;
36801;SDS011;22753;42.604;23.366;2024-02-21T04:38:19;20.13;;;13.50;;
36801;SDS011;22753;42.604;23.366;2024-02-21T04:40:45;22.45;;;15.13;;
36801;SDS011;22753;42.604;23.366;2024-02-21T04:43:10;20.23;;;14.00;;
36801;SDS011;22753;42.604;23.366;2024-02-21T04:45:35;21.10;;;13.80;;
36801;SDS011;22753;42.604;23.366;2024-02-21T04:48:01;26.02;;;14.20;;
36801;SDS011;22753;42.604;23.366;2024-02-21T04:50:26;21.77;;;13.50;;
36801;SDS011;22753;42.604;23.366;2024-02-21T04:52:52;22.92;;;14.27;;
36801;SDS011;22753;42.604;23.366;2024-02-21T04:55:17;20.52;;;14.27;;
36801;SDS011;22753;42.604;23.366;2024-02-21T04:57:43;21.42;;;14.55;;
36801;SDS011;22753;42.604;23.366;2024-02-21T05:00:08;23.42;;;15.15;;
36801;SDS011;22753;42.604;23.366;2024-02-21T05:02:34;21.90;;;13.43;;
36801;SDS011;22753;42.604;23.366;2024-02-21T05:04:59;21.27;;;12.93;;
36801;SDS011;22753;42.604;23.366;2024-02-21T05:07:25;21.45;;;13.68;;
36801;SDS011;22753;42.604;23.366;2024-02-21T05:09:50;21.02;;;13.50;;
36801;SDS011;22753;42.604;23.366;2024-02-21T05:12:16;22.75;;;13.77;;
36801;SDS011;22753;42.604;23.366;2024-02-21T05:14:41;20.70;;;13.70;;
36801;SDS011;22753;42.604;23.366;2024-02-21T05:17:07;23.10;;;14.77;;
36801;SDS011;22753;42.604;23.366;2024-02-21T05:19:32;24.40;;;15.90;;
36801;SDS011;22753;42.604;23.366;2024-02-21T05:21:58;23.38;;;14.77;;
36801;SDS011;22753;42.604;23.366;2024-02-21T05:24:24;27.98;;;16.75;;
36801;SDS011;22753;42.604;23.366;2024-02-21T05:26:49;26.20;;;17.55;;
36801;SDS011;22753;42.604;23.366;2024-02-21T05:29:14;27.50;;;17.13;;
36801;SDS011;22753;42.604;23.366;2024-02-21T05:31:54;24.75;;;16.15;;
36801;SDS011;22753;42.604;23.366;2024-02-21T05:36:46;22.05;;;13.88;;
36801;SDS011;22753;42.604;23.366;2024-02-21T05:39:13;25.42;;;14.32;;
36801;SDS011;22753;42.604;23.366;2024-02-21T05:41:39;22.98;;;14.25;;
36801;SDS011;22753;42.604;23.366;2024-02-21T05:44:05;24.70;;;15.75;;
36801;SDS011;22753;42.604;23.366;2024-02-21T05:46:30;25.63;;;15.35;;
36801;SDS011;22753;42.604;23.366;2024-02-21T05:48:55;23.42;;;15.05;;
36801;SDS011;22753;42.604;23.366;2024-02-21T05:51:21;25.95;;;15.30;;
36801;SDS011;22753;42.604;23.366;2024-02-21T05:53:46;29.85;;;17.98;;
36801;SDS011;22753;42.604;23.366;2024-02-21T05:56:12;25.70;;;15.43;;
36801;SDS011;22753;42.604;23.366;2024-02-21T05:58:38;25.10;;;14.15;;
36801;SDS011;22753;42.604;23.366;2024-02-21T06:01:03;24.42;;;15.40;;
36801;SDS011;22753;42.604;23.366;2024-02-21T06:03:29;26.23;;;15.00;;
36801;SDS011;22753;42.604;23.366;2024-02-21T06:05:55;24.80;;;14.02;;
36801;SDS011;22753;42.604;23.366;2024-02-21T06:08:21;20.98;;;13.40;;
36801;SDS011;22753;42.604;23.366;2024-02-21T06:10:46;22.35;;;14.18;;
36801;SDS011;22753;42.604;23.366;2024-02-21T06:13:13;25.70;;;15.45;;
36801;SDS011;22753;42.604;23.366;2024-02-21T06:15:39;25.17;;;16.52;;
36801;SDS011;22753;42.604;23.366;2024-02-21T06:18:04;26.67;;;15.95;;
36801;SDS011;22753;42.604;23.366;2024-02-21T06:20:29;29.05;;;17.95;;
36801;SDS011;22753;42.604;23.366;2024-02-21T06:22:55;36.33;;;19.58;;
36801;SDS011;22753;42.604;23.366;2024-02-21T06:25:20;27.70;;;17.13;;
36801;SDS011;22753;42.604;23.366;2024-02-21T06:27:45;27.60;;;17.20;;
36801;SDS011;22753;42.604;23.366;2024-02-21T06:30:11;28.17;;;18.35;;
36801;SDS011;22753;42.604;23.366;2024-02-21T06:32:36;29.13;;;19.95;;
36801;SDS011;22753;42.604;23.366;2024-02-21T06:35:03;28.55;;;17.35;;
36801;SDS011;22753;42.604;23.366;2024-02-21T06:37:29;27.50;;;17.75;;
36801;SDS011;22753;42.604;23.366;2024-02-21T06:39:55;30.70;;;19.30;;
36801;SDS011;22753;42.604;23.366;2024-02-21T06:42:20;33.17;;;19.00;;
36801;SDS011;22753;42.604;23.366;2024-02-21T06:44:46;31.33;;;18.33;;
36801;SDS011;22753;42.604;23.366;2024-02-21T06:47:12;32.38;;;18.67;;
36801;SDS011;22753;42.604;23.366;2024-02-21T06:49:37;29.15;;;18.15;;
36801;SDS011;22753;42.604;23.366;2024-02-21T06:52:03;28.40;;;18.77;;
36801;SDS011;22753;42.604;23.366;2024-02-21T06:54:30;29.98;;;19.20;;
36801;SDS011;22753;42.604;23.366;2024-02-21T06:56:55;27.85;;;18.08;;
36801;SDS011;22753;42.604;23.366;2024-02-21T06:59:20;26.95;;;16.95;;
36801;SDS011;22753;42.604;23.366;2024-02-21T07:01:49;27.73;;;17.52;;
36801;SDS011;22753;42.604;23.366;2024-02-21T07:04:15;33.30;;;18.80;;
36801;SDS011;22753;42.604;23.366;2024-02-21T07:06:40;27.75;;;17.48;;
36801;SDS011;22753;42.604;23.366;2024-02-21T07:09:06;28.17;;;18.50;;
36801;SDS011;22753;42.604;23.366;2024-02-21T07:11:31;29.08;;;17.98;;
36801;SDS011;22753;42.604;23.366;2024-02-21T07:13:56;29.08;;;18.60;;
36801;SDS011;22753;42.604;23.366;2024-02-21T07:16:22;29.35;;;18.27;;
36801;SDS011;22753;42.604;23.366;2024-02-21T07:18:47;30.67;;;19.10;;
36801;SDS011;22753;42.604;23.366;2024-02-21T07:21:12;27.33;;;17.40;;
36801;SDS011;22753;42.604;23.366;2024-02-21T07:23:40;29.67;;;18.65;;
36801;SDS011;22753;42.604;23.366;2024-02-21T07:26:07;31.17;;;18.55;;
36801;SDS011;22753;42.604;23.366;2024-02-21T07:28:32;28.90;;;16.58;;
36801;SDS011;22753;42.604;23.366;2024-02-21T07:30:59;27.73;;;16.85;;
36801;SDS011;22753;42.604;23.366;2024-02-21T07:33:24;26.52;;;16.77;;
36801;SDS011;22753;42.604;23.366;2024-02-21T07:35:50;26.52;;;17.10;;
36801;SDS011;22753;42.604;23.366;2024-02-21T07:38:15;28.27;;;17.92;;
36801;SDS011;22753;42.604;23.366;2024-02-21T07:40:44;26.58;;;17.33;;
36801;SDS011;22753;42.604;23.366;2024-02-21T07:43:10;29.17;;;18.48;;
36801;SDS011;22753;42.604;23.366;2024-02-21T07:45:35;27.63;;;18.08;;
36801;SDS011;22753;42.604;23.366;2024-02-21T07:48:01;32.30;;;18.17;;
36801;SDS011;22753;42.604;23.366;2024-02-21T07:50:27;28.92;;;17.67;;
36801;SDS011;22753;42.604;23.366;2024-02-21T07:52:52;32.03;;;18.58;;
36801;SDS011;22753;42.604;23.366;2024-02-21T07:55:18;29.85;;;17.55;;
36801;SDS011;22753;42.604;23.366;2024-02-21T07:57:43;33.72;;;18.13;;
36801;SDS011;22753;42.604;23.366;2024-02-21T08:00:09;30.58;;;18.17;;
36801;SDS011;22753;42.604;23.366;2024-02-21T08:02:38;32.75;;;18.23;;
36801;SDS011;22753;42.604;23.366;2024-02-21T08:05:04;29.38;;;17.65;;
36801;SDS011;22753;42.604;23.366;2024-02-21T08:07:29;28.50;;;17.63;;
36801;SDS011;22753;42.604;23.366;2024-02-21T08:09:56;30.05;;;17.80;;
36801;SDS011;22753;42.604;23.366;2024-02-21T08:12:21;28.77;;;17.00;;
36801;SDS011;22753;42.604;23.366;2024-02-21T08:14:47;34.95;;;17.65;;
36801;SDS011;22753;42.604;23.366;2024-02-21T08:17:12;29.58;;;18.05;;
36801;SDS011;22753;42.604;23.366;2024-02-21T08:19:37;28.90;;;17.52;;
36801;SDS011;22753;42.604;23.366;2024-02-21T08:22:03;28.15;;;17.88;;
36801;SDS011;22753;42.604;23.366;2024-02-21T08:24:28;28.55;;;17.80;;
36801;SDS011;22753;42.604;23.366;2024-02-21T08:26:54;31.70;;;18.55;;
36801;SDS011;22753;42.604;23.366;2024-02-21T08:29:19;29.15;;;18.50;;
36801;SDS011;22753;42.604;23.366;2024-02-21T08:31:44;29.45;;;17.67;;
36801;SDS011;22753;42.604;23.366;2024-02-21T08:34:10;27.80;;;18.10;;
36801;SDS011;22753;42.604;23.366;2024-02-21T08:36:35;28.13;;;16.88;;
36801;SDS011;22753;42.604;23.366;2024-02-21T08:39:01;27.90;;;17.40;;
36801;SDS011;22753;42.604;23.366;2024-02-21T08:41:30;25.75;;;16.30;;
36801;SDS011;22753;42.604;23.366;2024-02-21T08:43:56;26.50;;;17.63;;
36801;SDS011;22753;42.604;23.366;2024-02-21T08:46:21;31.25;;;17.85;;
36801;SDS011;22753;42.604;23.366;2024-02-21T08:48:51;28.10;;;16.38;;
36801;SDS011;22753;42.604;23.366;2024-02-21T08:51:16;28.40;;;16.00;;
36801;SDS011;22753;42.604;23.366;2024-02-21T08:53:42;26.55;;;16.45;;
36801;SDS011;22753;42.604;23.366;2024-02-21T08:56:07;27.70;;;15.93;;
36801;SDS011;22753;42.604;23.366;2024-02-21T08:58:33;27.45;;;14.85;;
36801;SDS011;22753;42.604;23.366;2024-02-21T09:00:58;22.92;;;13.18;;
36801;SDS011;22753;42.604;23.366;2024-02-21T09:03:24;20.33;;;11.93;;
36801;SDS011;22753;42.604;23.366;2024-02-21T09:05:50;20.23;;;13.02;;
36801;SDS011;22753;42.604;23.366;2024-02-21T09:08:15;20.67;;;11.45;;
36801;SDS011;22753;42.604;23.366;2024-02-21T09:10:40;21.40;;;12.48;;
36801;SDS011;22753;42.604;23.366;2024-02-21T09:13:06;20.42;;;12.43;;
36801;SDS011;22753;42.604;23.366;2024-02-21T09:15:33;18.90;;;12.77;;
36801;SDS011;22753;42.604;23.366;2024-02-21T09:17:59;18.40;;;11.65;;
36801;SDS011;22753;42.604;23.366;2024-02-21T09:20:24;20.13;;;11.68;;
36801;SDS011;22753;42.604;23.366;2024-02-21T09:22:49;22.45;;;12.63;;
36801;SDS011;22753;42.604;23.366;2024-02-21T09:25:15;24.27;;;13.70;;
36801;SDS011;22753;42.604;23.366;2024-02-21T09:27:40;21.77;;;12.52;;
36801;SDS011;22753;42.604;23.366;2024-02-21T09:30:06;21.45;;;13.45;;
36801;SDS011;22753;42.604;23.366;2024-02-21T09:32:32;19.60;;;12.07;;
36801;SDS011;22753;42.604;23.366;2024-02-21T09:34:58;20.88;;;11.90;;
36801;SDS011;22753;42.604;23.366;2024-02-21T09:37:23;23.33;;;13.10;;
36801;SDS011;22753;42.604;23.366;2024-02-21T09:39:49;18.80;;;12.20;;
36801;SDS011;22753;42.604;23.366;2024-02-21T09:42:16;23.95;;;13.57;;
36801;SDS011;22753;42.604;23.366;2024-02-21T09:44:45;19.98;;;12.32;;
36801;SDS011;22753;42.604;23.366;2024-02-21T09:47:12;18.38;;;11.55;;
36801;SDS011;22753;42.604;23.366;2024-02-21T09:49:40;21.13;;;12.75;;
36801;SDS011;22753;42.604;23.366;2024-02-21T09:52:06;24.40;;;13.30;;
36801;SDS011;22753;42.604;23.366;2024-02-21T09:54:32;21.55;;;12.40;;
36801;SDS011;22753;42.604;23.366;2024-02-21T09:57:01;19.98;;;11.73;;
36801;SDS011;22753;42.604;23.366;2024-02-21T09:59:28;19.88;;;11.98;;
36801;SDS011;22753;42.604;23.366;2024-02-21T10:01:54;21.33;;;11.77;;
36801;SDS011;22753;42.604;23.366;2024-02-21T10:04:20;18.30;;;11.13;;
36801;SDS011;22753;42.604;23.366;2024-02-21T10:06:46;22.13;;;12.73;;
36801;SDS011;22753;42.604;23.366;2024-02-21T10:09:21;25.05;;;14.48;;
36801;SDS011;22753;42.604;23.366;2024-02-21T10:11:48;23.52;;;13.15;;
36801;SDS011;22753;42.604;23.366;2024-02-21T10:14:14;23.00;;;14.68;;
36801;SDS011;22753;42.604;23.366;2024-02-21T10:16:40;19.35;;;12.00;;
36801;SDS011;22753;42.604;23.366;2024-02-21T10:19:06;20.10;;;13.50;;
36801;SDS011;22753;42.604;23.366;2024-02-21T10:21:31;17.98;;;12.57;;
36801;SDS011;22753;42.604;23.366;2024-02-21T10:23:56;19.02;;;12.32;;
36801;SDS011;22753;42.604;23.366;2024-02-21T10:26:22;18.83;;;11.00;;
36801;SDS011;22753;42.604;23.366;2024-02-21T10:28:47;15.93;;;10.50;;
36801;SDS011;22753;42.604;23.366;2024-02-21T10:31:23;17.17;;;11.00;;
36801;SDS011;22753;42.604;23.366;2024-02-21T10:33:53;17.52;;;9.95;;
36801;SDS011;22753;42.604;23.366;2024-02-21T10:36:23;12.77;;;8.27;;
36801;SDS011;22753;42.604;23.366;2024-02-21T10:38:49;12.10;;;7.80;;
36801;SDS011;22753;42.604;23.366;2024-02-21T10:41:15;13.13;;;7.93;;
36801;SDS011;22753;42.604;23.366;2024-02-21T10:43:43;12.70;;;8.30;;
36801;SDS011;22753;42.604;23.366;2024-02-21T10:46:11;13.35;;;8.55;;
36801;SDS011;22753;42.604;23.366;2024-02-21T10:48:44;22.40;;;10.82;;
36801;SDS011;22753;42.604;23.366;2024-02-21T10:56:39;11.63;;;8.15;;
36801;SDS011;22753;42.604;23.366;2024-02-21T10:59:06;16.40;;;9.77;;
36801;SDS011;22753;42.604;23.366;2024-02-21T11:01:33;14.45;;;8.98;;
36801;SDS011;22753;42.604;23.366;2024-02-21T11:04:04;14.13;;;7.28;;
36801;SDS011;22753;42.604;23.366;2024-02-21T11:06:31;10.73;;;6.47;;
36801;SDS011;22753;42.604;23.366;2024-02-21T11:09:01;11.45;;;7.03;;
36801;SDS011;22753;42.604;23.366;2024-02-21T11:11:28;12.55;;;7.93;;
36801;SDS011;22753;42.604;23.366;2024-02-21T11:14:03;18.75;;;8.73;;
36801;SDS011;22753;42.604;23.366;2024-02-21T11:16:34;11.68;;;7.45;;
36801;SDS011;22753;42.604;23.366;2024-02-21T11:19:07;15.77;;;8.60;;
36801;SDS011;22753;42.604;23.366;2024-02-21T11:21:36;12.00;;;7.72;;
36801;SDS011;22753;42.604;23.366;2024-02-21T11:24:05;12.65;;;7.82;;
36801;SDS011;22753;42.604;23.366;2024-02-21T11:26:31;13.70;;;7.90;;
36801;SDS011;22753;42.604;23.366;2024-02-21T11:29:00;13.57;;;7.50;;
36801;SDS011;22753;42.604;23.366;2024-02-21T11:31:37;14.98;;;7.95;;
36801;SDS011;22753;42.604;23.366;2024-02-21T11:34:03;12.63;;;7.20;;
36801;SDS011;22753;42.604;23.366;2024-02-21T11:36:29;12.55;;;6.82;;
36801;SDS011;22753;42.604;23.366;2024-02-21T11:38:54;11.90;;;5.85;;
36801;SDS011;22753;42.604;23.366;2024-02-21T11:41:20;10.70;;;6.20;;
36801;SDS011;22753;42.604;23.366;2024-02-21T11:43:48;11.43;;;6.28;;
36801;SDS011;22753;42.604;23.366;2024-02-21T11:46:15;12.35;;;6.25;;
36801;SDS011;22753;42.604;23.366;2024-02-21T11:48:40;10.82;;;6.45;;
36801;SDS011;22753;42.604;23.366;2024-02-21T11:51:06;11.68;;;6.40;;
36801;SDS011;22753;42.604;23.366;2024-02-21T11:53:32;10.93;;;6.88;;
36801;SDS011;22753;42.604;23.366;2024-02-21T11:55:58;13.95;;;7.70;;
36801;SDS011;22753;42.604;23.366;2024-02-21T11:58:24;10.25;;;6.00;;
36801;SDS011;22753;42.604;23.366;2024-02-21T12:00:50;11.32;;;5.47;;
36801;SDS011;22753;42.604;23.366;2024-02-21T12:03:15;8.32;;;5.07;;
36801;SDS011;22753;42.604;23.366;2024-02-21T12:05:41;9.30;;;5.22;;
36801;SDS011;22753;42.604;23.366;2024-02-21T12:08:06;10.30;;;5.13;;
36801;SDS011;22753;42.604;23.366;2024-02-21T12:10:32;8.70;;;5.57;;
36801;SDS011;22753;42.604;23.366;2024-02-21T12:13:08;10.10;;;5.50;;
36801;SDS011;22753;42.604;23.366;2024-02-21T12:15:34;9.70;;;5.45;;
36801;SDS011;22753;42.604;23.366;2024-02-21T12:17:59;10.48;;;5.75;;
36801;SDS011;22753;42.604;23.366;2024-02-21T12:20:25;9.57;;;6.15;;
36801;SDS011;22753;42.604;23.366;2024-02-21T12:22:51;9.73;;;5.53;;
36801;SDS011;22753;42.604;23.366;2024-02-21T12:25:21;11.43;;;5.90;;
36801;SDS011;22753;42.604;23.366;2024-02-21T12:27:52;11.55;;;5.70;;
36801;SDS011;22753;42.604;23.366;2024-02-21T12:30:17;12.30;;;6.20;;
36801;SDS011;22753;42.604;23.366;2024-02-21T12:32:44;14.73;;;6.30;;
36801;SDS011;22753;42.604;23.366;2024-02-21T12:35:10;12.23;;;6.32;;
36801;SDS011;22753;42.604;23.366;2024-02-21T12:37:35;8.68;;;5.30;;
36801;SDS011;22753;42.604;23.366;2024-02-21T12:40:01;12.23;;;5.93;;
36801;SDS011;22753;42.604;23.366;2024-02-21T12:42:31;12.57;;;6.38;;
36801;SDS011;22753;42.604;23.366;2024-02-21T12:44:58;11.00;;;6.65;;
36801;SDS011;22753;42.604;23.366;2024-02-21T12:47:23;11.75;;;6.25;;
36801;SDS011;22753;42.604;23.366;2024-02-21T12:49:49;12.38;;;7.10;;
36801;SDS011;22753;42.604;23.366;2024-02-21T12:52:15;10.55;;;6.50;;
36801;SDS011;22753;42.604;23.366;2024-02-21T12:54:41;11.57;;;6.47;;
36801;SDS011;22753;42.604;23.366;2024-02-21T12:57:07;14.48;;;6.85;;
36801;SDS011;22753;42.604;23.366;2024-02-21T12:59:33;14.95;;;7.43;;
36801;SDS011;22753;42.604;23.366;2024-02-21T13:01:59;12.93;;;7.28;;
36801;SDS011;22753;42.604;23.366;2024-02-21T13:04:24;17.98;;;7.80;;
36801;SDS011;22753;42.604;23.366;2024-02-21T13:06:49;10.85;;;6.97;;
36801;SDS011;22753;42.604;23.366;2024-02-21T13:09:15;10.32;;;6.03;;
36801;SDS011;22753;42.604;23.366;2024-02-21T13:11:40;11.27;;;6.57;;
36801;SDS011;22753;42.604;23.366;2024-02-21T13:14:07;16.70;;;7.28;;
36801;SDS011;22753;42.604;23.366;2024-02-21T13:16:32;14.20;;;6.22;;
36801;SDS011;22753;42.604;23.366;2024-02-21T13:19:04;9.77;;;5.50;;
36801;SDS011;22753;42.604;23.366;2024-02-21T13:21:35;9.05;;;4.47;;
36801;SDS011;22753;42.604;23.366;2024-02-21T13:24:01;9.10;;;4.70;;
36801;SDS011;22753;42.604;23.366;2024-02-21T13:26:27;9.43;;;4.85;;
36801;SDS011;22753;42.604;23.366;2024-02-21T13:28:53;6.43;;;3.88;;
36801;SDS011;22753;42.604;23.366;2024-02-21T13:31:18;10.07;;;4.82;;
36801;SDS011;22753;42.604;23.366;2024-02-21T13:33:44;11.60;;;4.95;;
36801;SDS011;22753;42.604;23.366;2024-02-21T13:36:09;9.00;;;4.65;;
36801;SDS011;22753;42.604;23.366;2024-02-21T13:38:35;7.80;;;4.55;;
36801;SDS011;22753;42.604;23.366;2024-02-21T13:41:00;10.73;;;6.55;;
36801;SDS011;22753;42.604;23.366;2024-02-21T13:43:26;12.27;;;7.70;;
36801;SDS011;22753;42.604;23.366;2024-02-21T13:45:58;15.00;;;8.50;;
36801;SDS011;22753;42.604;23.366;2024-02-21T13:48:24;13.00;;;8.32;;
36801;SDS011;22753;42.604;23.366;2024-02-21T13:50:50;14.38;;;9.15;;
36801;SDS011;22753;42.604;23.366;2024-02-21T13:53:15;17.33;;;8.90;;
36801;SDS011;22753;42.604;23.366;2024-02-21T13:55:43;16.52;;;9.25;;
36801;SDS011;22753;42.604;23.366;2024-02-21T13:58:11;15.63;;;8.30;;
36801;SDS011;22753;42.604;23.366;2024-02-21T14:00:36;15.88;;;8.32;;
36801;SDS011;22753;42.604;23.366;2024-02-21T14:03:02;14.05;;;8.52;;
36801;SDS011;22753;42.604;23.366;2024-02-21T14:05:28;14.20;;;8.73;;
36801;SDS011;22753;42.604;23.366;2024-02-21T14:07:53;14.20;;;7.95;;
36801;SDS011;22753;42.604;23.366;2024-02-21T14:10:19;14.02;;;8.40;;
36801;SDS011;22753;42.604;23.366;2024-02-21T14:12:45;11.63;;;7.22;;
36801;SDS011;22753;42.604;23.366;2024-02-21T14:15:12;10.98;;;6.10;;
36801;SDS011;22753;42.604;23.366;2024-02-21T14:17:38;10.50;;;6.07;;